Time;durP1;ratioP1;P1;durP2;ratioP2;P2;SDS_P1;SDS_P2;PMS_P1;PMS_P2;Temp;Humidity;BMP_temperature;BMP_pressure;BME280_temperature;BME280_humidity;BME280_pressure;Samples;Min_cycle;Max_cycle;Signal;HPM_P1;HPM_P2
2023/09/25 00:01:46;;;;;;;5.30;2.60;;;;;;;9.22;100.00;98078.78;4974366;28;20436;-81
2023/09/25 00:04:12;;;;;;;3.00;2.40;;;;;;;9.20;100.00;98073.72;4975040;28;20435;-81
2023/09/25 00:06:39;;;;;;;4.03;2.63;;;;;;;9.21;100.00;98075.34;4972978;28;20412;-80
2023/09/25 00:09:06;;;;;;;5.90;3.15;;;;;;;9.21;100.00;98069.25;4974419;28;20455;-80
2023/09/25 00:11:32;;;;;;;4.45;2.92;;;;;;;9.18;100.00;98072.34;4975174;28;20407;-81
2023/09/25 00:13:58;;;;;;;5.13;3.10;;;;;;;9.13;100.00;98070.38;4974436;28;20920;-80
2023/09/25 00:16:24;;;;;;;6.28;3.15;;;;;;;9.13;100.00;98070.38;4975038;28;20969;-82
2023/09/25 00:18:52;;;;;;;5.88;3.00;;;;;;;9.10;100.00;98067.38;4974608;28;20452;-81
2023/09/25 00:21:18;;;;;;;4.65;3.30;;;;;;;9.06;100.00;98069.66;4974308;28;20414;-80
2023/09/25 00:23:44;;;;;;;4.93;3.17;;;;;;;9.03;100.00;98069.28;4975145;28;20427;-79
2023/09/25 00:26:12;;;;;;;4.75;3.10;;;;;;;9.01;100.00;98068.75;4975184;28;20400;-80
2023/09/25 00:28:40;;;;;;;4.75;3.17;;;;;;;8.95;100.00;98065.13;4974908;28;20715;-81
2023/09/25 00:31:06;;;;;;;4.97;2.92;;;;;;;8.93;100.00;98061.94;4974639;28;20426;-81
2023/09/25 00:33:32;;;;;;;4.57;3.05;;;;;;;8.92;100.00;98065.59;4974275;28;20418;-80
2023/09/25 00:36:00;;;;;;;5.68;3.50;;;;;;;8.88;100.00;98059.94;4973643;28;20471;-81
2023/09/25 00:38:26;;;;;;;4.90;3.07;;;;;;;8.88;100.00;98059.94;4973796;28;20458;-81
2023/09/25 00:40:52;;;;;;;5.30;3.13;;;;;;;8.85;100.00;98060.41;4973852;28;20427;-81
2023/09/25 00:43:18;;;;;;;5.68;3.10;;;;;;;8.82;100.00;98065.31;4973642;28;20401;-81
2023/09/25 00:45:46;;;;;;;5.45;3.22;;;;;;;8.81;100.00;98063.69;4973804;28;20407;-80
2023/09/25 00:48:22;;;;;;;4.87;3.20;;;;;;;8.78;100.00;98062.34;4973768;28;20479;-80
2023/09/25 00:50:48;;;;;;;5.90;3.25;;;;;;;8.77;100.00;98054.63;4974306;28;20409;-81
2023/09/25 00:53:16;;;;;;;4.63;2.80;;;;;;;8.74;100.00;98066.44;4974174;28;20401;-81
2023/09/25 00:55:42;;;;;;;4.95;2.92;;;;;;;8.74;100.00;98063.78;4974604;28;20405;-82
2023/09/25 00:58:11;;;;;;;3.75;3.00;;;;;;;8.72;100.00;98065.84;4974935;28;20484;-81
2023/09/25 01:00:37;;;;;;;6.03;2.97;;;;;;;8.70;100.00;98070.56;4973447;28;20400;-79
2023/09/25 01:03:05;;;;;;;5.40;3.07;;;;;;;8.68;100.00;98067.31;4974105;28;20399;-80
2023/09/25 01:05:32;;;;;;;4.25;2.80;;;;;;;8.66;100.00;98061.44;4973402;28;20400;-81
2023/09/25 01:07:59;;;;;;;3.50;2.30;;;;;;;8.67;100.00;98070.97;4973484;28;20765;-79
2023/09/25 01:10:27;;;;;;;4.25;2.85;;;;;;;8.65;100.00;98073.03;4973997;28;20479;-81
2023/09/25 01:12:53;;;;;;;5.25;2.75;;;;;;;8.64;100.00;98068.81;4974066;28;20749;-81
2023/09/25 01:15:21;;;;;;;7.73;2.93;;;;;;;8.63;100.00;98067.19;4974168;28;20400;-81
2023/09/25 01:17:47;;;;;;;4.93;3.55;;;;;;;8.63;100.00;98069.03;4973483;28;20411;-81
2023/09/25 01:20:17;;;;;;;5.05;3.30;;;;;;;8.62;100.00;98065.56;4973477;28;20971;-81
2023/09/25 01:22:46;;;;;;;4.63;3.35;;;;;;;8.63;100.00;98069.03;4976709;28;20400;-80
2023/09/25 01:25:13;;;;;;;5.50;3.03;;;;;;;8.63;100.00;98063.75;4973123;28;20396;-81
2023/09/25 01:27:42;;;;;;;5.55;3.10;;;;;;;8.62;100.00;98059.50;4972640;28;20920;-79
2023/09/25 01:30:09;;;;;;;5.70;3.33;;;;;;;8.60;100.00;98062.34;4973514;28;20651;-79
2023/09/25 01:32:37;;;;;;;6.57;3.28;;;;;;;8.58;100.00;98053.03;4973432;28;20761;-81
2023/09/25 01:35:04;;;;;;;5.38;3.20;;;;;;;8.56;100.00;98052.47;4973328;28;20404;-82
2023/09/25 01:37:30;;;;;;;5.85;3.20;;;;;;;8.55;100.00;98041.09;4973674;28;20419;-81
2023/09/25 01:39:58;;;;;;;4.65;2.90;;;;;;;8.50;100.00;98044.38;4973979;28;20404;-81
2023/09/25 01:42:24;;;;;;;5.25;2.75;;;;;;;8.50;100.00;98046.22;4973349;28;20409;-80
2023/09/25 01:44:50;;;;;;;4.40;2.85;;;;;;;8.48;100.00;98037.75;4974714;28;20408;-81
2023/09/25 01:47:17;;;;;;;4.82;3.05;;;;;;;8.46;100.00;98034.50;4976099;28;20791;-81
2023/09/25 01:49:43;;;;;;;2.90;2.40;;;;;;;8.45;100.00;98027.63;4979091;28;20451;-80
2023/09/25 01:52:12;;;;;;;3.83;2.72;;;;;;;8.44;100.00;98033.91;4980713;28;20401;-79
2023/09/25 01:54:38;;;;;;;5.22;2.65;;;;;;;8.44;100.00;98020.72;4980186;28;20411;-80
2023/09/25 01:57:05;;;;;;;4.47;2.88;;;;;;;8.43;100.00;98019.09;4980306;28;20408;-82
2023/09/25 01:59:32;;;;;;;4.82;2.88;;;;;;;8.41;100.00;98022.00;4980583;28;20455;-82
2023/09/25 02:01:58;;;;;;;3.22;2.80;;;;;;;8.43;100.00;98024.38;4986488;28;20396;-80
2023/09/25 02:04:24;;;;;;;5.80;3.17;;;;;;;8.40;100.00;98024.84;4978943;28;20400;-81
2023/09/25 02:06:50;;;;;;;3.85;2.80;;;;;;;8.39;100.00;98023.22;4978985;28;20491;-81
2023/09/25 02:09:17;;;;;;;4.00;2.60;;;;;;;8.37;100.00;98025.28;4979322;28;20451;-81
2023/09/25 02:11:43;;;;;;;3.20;2.50;;;;;;;8.35;100.00;98022.84;4976927;28;20872;-80
2023/09/25 02:14:10;;;;;;;2.70;2.30;;;;;;;8.35;100.00;98022.84;4976304;28;20442;-81
2023/09/25 02:16:36;;;;;;;3.47;2.50;;;;;;;8.33;100.00;98032.03;4976599;28;20745;-79
2023/09/25 02:19:03;;;;;;;3.20;2.40;;;;;;;8.31;100.00;98032.25;4977196;28;20392;-82
2023/09/25 02:21:29;;;;;;;3.35;2.53;;;;;;;8.29;100.00;98023.72;4976566;28;20442;-80
2023/09/25 02:23:56;;;;;;;2.75;2.30;;;;;;;8.27;100.00;98015.19;4976850;28;20404;-79
2023/09/25 02:26:22;;;;;;;2.70;2.38;;;;;;;8.25;100.00;98019.09;4976393;28;20681;-79
2023/09/25 02:28:48;;;;;;;2.70;2.20;;;;;;;8.23;100.00;98023.78;4976945;28;20817;-80
2023/09/25 02:31:16;;;;;;;3.17;2.58;;;;;;;8.19;100.00;98028.72;4977063;28;20431;-80
2023/09/25 02:33:42;;;;;;;3.25;2.20;;;;;;;8.16;100.00;98022.03;4977479;28;20397;-81
2023/09/25 02:36:09;;;;;;;3.30;2.40;;;;;;;8.11;100.00;98021.91;4976192;28;20396;-82
2023/09/25 02:38:35;;;;;;;3.58;2.58;;;;;;;8.06;100.00;98016.44;4976878;28;20423;-81
2023/09/25 02:41:01;;;;;;;3.35;2.53;;;;;;;8.03;100.00;98009.00;4976423;28;20416;-81
2023/09/25 02:43:28;;;;;;;3.75;2.53;;;;;;;7.99;100.00;98018.34;4976250;28;20793;-80
2023/09/25 02:45:54;;;;;;;4.22;2.60;;;;;;;7.94;100.00;98017.41;4976821;28;20480;-80
2023/09/25 02:48:22;;;;;;;2.55;2.30;;;;;;;7.91;100.00;98017.84;4976168;28;20454;-80
2023/09/25 02:50:49;;;;;;;2.60;2.25;;;;;;;7.88;100.00;98010.38;4976516;28;20404;-80
2023/09/25 02:53:15;;;;;;;2.88;2.25;;;;;;;7.83;100.00;98011.00;4976861;28;20507;-80
2023/09/25 02:55:41;;;;;;;3.10;2.38;;;;;;;7.80;100.00;98010.66;4975719;28;20400;-80
2023/09/25 02:58:08;;;;;;;4.43;2.80;;;;;;;7.75;100.00;98011.28;4975425;28;20885;-81
2023/09/25 03:00:34;;;;;;;3.95;2.60;;;;;;;7.71;100.00;98015.41;4974165;28;20889;-81
2023/09/25 03:03:00;;;;;;;3.53;2.53;;;;;;;7.68;100.00;98024.53;4975820;28;20432;-79
2023/09/25 03:05:27;;;;;;;3.35;2.60;;;;;;;7.65;100.00;98024.19;4975068;28;20801;-81
2023/09/25 03:07:53;;;;;;;3.03;2.53;;;;;;;7.63;100.00;98021.75;4975611;28;20420;-81
2023/09/25 03:10:21;;;;;;;4.32;3.30;;;;;;;7.61;100.00;98015.88;4975625;28;20805;-81
2023/09/25 03:12:47;;;;;;;2.97;2.45;;;;;;;7.61;100.00;98022.97;4975836;28;20778;-81
2023/09/25 03:15:13;;;;;;;3.67;2.80;;;;;;;7.56;100.00;98021.00;4975797;28;20483;-79
2023/09/25 03:17:39;;;;;;;2.72;2.35;;;;;;;7.55;100.00;98019.38;4975838;28;20408;-81
2023/09/25 03:20:15;;;;;;;3.15;2.13;;;;;;;7.56;100.00;98022.81;4975999;28;20408;-81
2023/09/25 03:22:44;;;;;;;2.88;2.58;;;;;;;7.55;100.00;98024.66;4975467;28;20500;-80
2023/09/25 03:25:12;;;;;;;3.03;2.73;;;;;;;7.52;100.00;98021.66;4975725;28;20988;-81
2023/09/25 03:27:38;;;;;;;2.85;2.40;;;;;;;7.52;100.00;98019.03;4975594;28;20432;-81
2023/09/25 03:30:05;;;;;;;4.50;2.60;;;;;;;7.48;100.00;98021.28;4979292;28;20418;-80
2023/09/25 03:32:32;;;;;;;3.30;2.63;;;;;;;7.44;100.00;98019.28;4975338;28;20881;-81
2023/09/25 03:34:58;;;;;;;3.67;2.70;;;;;;;7.42;100.00;98016.06;4975052;28;20396;-80
2023/09/25 03:37:24;;;;;;;3.58;2.83;;;;;;;7.37;100.00;98014.88;4975069;28;20932;-81
2023/09/25 03:39:52;;;;;;;4.80;3.07;;;;;;;7.34;100.00;98015.31;4974074;28;20419;-81
2023/09/25 03:42:18;;;;;;;2.95;2.58;;;;;;;7.34;100.00;98011.88;4975345;28;20407;-80
2023/09/25 03:44:44;;;;;;;3.25;2.80;;;;;;;7.33;100.00;98016.31;4975517;28;20404;-81
2023/09/25 03:47:10;;;;;;;3.57;2.90;;;;;;;7.33;100.00;98005.78;4975168;28;20420;-81
2023/09/25 03:49:39;;;;;;;2.88;2.38;;;;;;;7.32;100.00;98009.44;4975060;28;20494;-81
2023/09/25 03:52:05;;;;;;;3.50;2.58;;;;;;;7.32;100.00;97998.91;4974716;28;20404;-80
2023/09/25 03:54:31;;;;;;;5.10;2.90;;;;;;;7.31;100.00;98007.81;4975554;28;20427;-81
2023/09/25 03:56:59;;;;;;;5.70;3.00;;;;;;;7.30;100.00;98008.84;4974970;28;20403;-81
2023/09/25 03:59:25;;;;;;;3.90;2.60;;;;;;;7.29;100.00;98009.84;4974620;28;20404;-80
2023/09/25 04:01:51;;;;;;;3.72;2.63;;;;;;;7.28;100.00;98012.72;4974369;28;20400;-79
2023/09/25 04:04:17;;;;;;;5.45;2.80;;;;;;;7.27;100.00;98011.94;4974618;28;20398;-81
2023/09/25 04:06:43;;;;;;;4.22;2.85;;;;;;;7.26;100.00;98010.31;4974714;28;20401;-80
2023/09/25 04:09:10;;;;;;;4.13;2.80;;;;;;;7.26;100.00;98012.94;4975111;28;20397;-81
2023/09/25 04:11:36;;;;;;;3.30;2.50;;;;;;;7.28;100.00;98015.38;4974209;28;20400;-79
2023/09/25 04:14:06;;;;;;;4.43;2.78;;;;;;;7.25;100.00;98013.97;4979448;28;20952;-79
2023/09/25 04:16:33;;;;;;;3.30;2.70;;;;;;;7.26;100.00;98020.03;4973944;28;20405;-79
2023/09/25 04:18:59;;;;;;;5.55;2.90;;;;;;;7.25;100.00;98015.78;4975431;28;20408;-80
2023/09/25 04:21:25;;;;;;;3.97;2.80;;;;;;;7.21;100.00;98011.97;4980540;28;20404;-79
2023/09/25 04:23:52;;;;;;;4.07;2.90;;;;;;;7.20;100.00;98013.00;4979715;28;20488;-80
2023/09/25 04:26:18;;;;;;;3.50;2.60;;;;;;;7.17;100.00;98008.16;4981025;28;20810;-80
2023/09/25 04:28:44;;;;;;;7.18;2.92;;;;;;;7.15;100.00;98008.34;4978177;28;20919;-79
2023/09/25 04:31:12;;;;;;;3.13;2.80;;;;;;;7.12;100.00;98014.06;4976822;28;20400;-80
2023/09/25 04:33:41;;;;;;;4.15;2.92;;;;;;;7.12;100.00;98007.97;4980908;28;20416;-80
2023/09/25 04:36:10;;;;;;;2.88;2.58;;;;;;;7.10;100.00;98004.75;4974467;28;20498;-79
2023/09/25 04:38:36;;;;;;;5.88;3.25;;;;;;;7.06;100.00;98004.38;4976266;28;20415;-79
2023/09/25 04:41:03;;;;;;;4.95;3.30;;;;;;;7.05;100.00;98012.50;4976476;28;20407;-80
2023/09/25 04:43:30;;;;;;;3.72;2.90;;;;;;;7.00;100.00;98011.28;4976595;28;20953;-79
2023/09/25 04:45:58;;;;;;;4.25;2.80;;;;;;;6.99;100.00;98003.63;4975423;28;20438;-80
2023/09/25 04:48:25;;;;;;;4.22;2.85;;;;;;;6.97;100.00;98009.09;4975059;28;20450;-81
2023/09/25 04:50:52;;;;;;;3.13;2.72;;;;;;;6.97;100.00;98014.38;4974590;28;20404;-81
2023/09/25 04:53:21;;;;;;;3.65;2.95;;;;;;;6.97;100.00;98008.28;4974297;28;20395;-82
2023/09/25 04:55:47;;;;;;;6.05;2.80;;;;;;;6.99;100.00;98017.56;4974548;28;20460;-83
2023/09/25 04:58:14;;;;;;;3.57;2.70;;;;;;;7.00;100.00;98016.56;4976476;28;20482;-84
2023/09/25 05:00:41;;;;;;;3.83;3.08;;;;;;;7.02;100.00;98018.97;4976918;28;20443;-81
2023/09/25 05:03:07;;;;;;;4.05;3.22;;;;;;;7.04;100.00;98016.13;4974149;28;20454;-82
2023/09/25 05:05:35;;;;;;;4.80;3.25;;;;;;;7.01;100.00;98017.34;4975342;28;20487;-83
2023/09/25 05:08:02;;;;;;;4.03;2.83;;;;;;;7.02;100.00;98023.44;4974182;28;20467;-80
2023/09/25 05:10:29;;;;;;;3.88;2.95;;;;;;;6.99;100.00;98016.78;4973327;28;20471;-80
2023/09/25 05:12:56;;;;;;;3.47;2.97;;;;;;;6.99;100.00;98022.81;4973287;28;20408;-83
2023/09/25 05:15:24;;;;;;;3.85;2.95;;;;;;;6.98;100.00;98026.50;4973354;28;20435;-84
2023/09/25 05:17:50;;;;;;;3.28;2.80;;;;;;;6.93;100.00;98026.31;4972808;28;20400;-81
2023/09/25 05:20:18;;;;;;;4.82;3.33;;;;;;;6.91;100.00;98025.75;4973536;28;20440;-84
2023/09/25 05:22:47;;;;;;;4.90;3.17;;;;;;;6.90;100.00;98026.75;4973168;28;20396;-84
2023/09/25 05:25:15;;;;;;;4.00;3.10;;;;;;;6.89;100.00;98027.78;4977580;28;20408;-84
2023/09/25 05:27:43;;;;;;;5.18;3.10;;;;;;;6.90;100.00;98025.94;4977378;28;20916;-83
2023/09/25 05:30:12;;;;;;;3.95;2.97;;;;;;;6.90;100.00;98026.75;4976903;28;21273;-80
2023/09/25 05:32:40;;;;;;;5.65;2.75;;;;;;;6.91;100.00;98024.94;4977199;28;20964;-83
2023/09/25 05:35:08;;;;;;;4.40;2.80;;;;;;;6.89;100.00;98033.03;4976760;28;20404;-83
2023/09/25 05:37:35;;;;;;;3.53;2.75;;;;;;;6.89;100.00;98029.59;4980290;28;20499;-84
2023/09/25 05:40:05;;;;;;;4.05;3.15;;;;;;;6.89;100.00;98026.97;4978284;28;20407;-83
2023/09/25 05:42:31;;;;;;;4.50;2.90;;;;;;;6.90;100.00;98029.38;4980037;28;20396;-84
2023/09/25 05:44:58;;;;;;;4.18;2.90;;;;;;;6.89;100.00;98033.03;4979827;28;20427;-84
2023/09/25 05:47:24;;;;;;;4.13;3.05;;;;;;;6.90;100.00;98036.47;4978905;28;20419;-84
2023/09/25 05:49:51;;;;;;;4.10;2.88;;;;;;;6.92;100.00;98029.97;4980379;28;20405;-82
2023/09/25 05:52:17;;;;;;;3.88;2.92;;;;;;;6.92;100.00;98031.78;4978258;28;20827;-83
2023/09/25 05:54:43;;;;;;;3.88;2.85;;;;;;;6.95;100.00;98029.56;4978774;28;20825;-84
2023/09/25 05:57:11;;;;;;;4.00;2.80;;;;;;;6.96;100.00;98022.47;4978307;28;20431;-84
2023/09/25 05:59:37;;;;;;;3.67;3.03;;;;;;;6.98;100.00;98023.06;4977873;28;20443;-84
2023/09/25 06:02:04;;;;;;;3.58;2.80;;;;;;;6.99;100.00;98027.31;4992911;28;20480;-84
2023/09/25 06:04:34;;;;;;;4.53;3.25;;;;;;;7.00;100.00;98021.81;4977311;28;20780;-82
2023/09/25 06:07:00;;;;;;;4.03;3.30;;;;;;;7.02;100.00;98021.59;4978240;28;20443;-82
2023/09/25 06:09:26;;;;;;;3.92;3.00;;;;;;;7.07;100.00;98026.25;4976502;28;20404;-82
2023/09/25 06:11:52;;;;;;;5.15;3.70;;;;;;;7.08;100.00;98020.75;4976466;28;20410;-84
2023/09/25 06:14:21;;;;;;;6.15;4.88;;;;;;;7.12;100.00;98019.31;4977463;28;20441;-81
2023/09/25 06:16:48;;;;;;;6.17;4.50;;;;;;;7.18;100.00;98017.66;4976835;28;20435;-84
2023/09/25 06:19:15;;;;;;;5.65;4.43;;;;;;;7.24;100.00;98019.44;4975816;28;20828;-84
2023/09/25 06:21:41;;;;;;;6.70;4.77;;;;;;;7.31;100.00;98022.81;4976086;28;20396;-84
2023/09/25 06:24:09;;;;;;;7.50;4.28;;;;;;;7.41;100.00;98030.25;4976520;28;20825;-84
2023/09/25 06:26:35;;;;;;;6.28;4.45;;;;;;;7.53;100.00;98037.22;4976517;28;20726;-83
2023/09/25 06:29:01;;;;;;;5.90;4.30;;;;;;;7.64;100.00;98039.19;4976308;28;20416;-83
2023/09/25 06:31:29;;;;;;;5.35;4.15;;;;;;;7.74;100.00;98028.16;4976416;28;20400;-82
2023/09/25 06:33:55;;;;;;;5.43;3.97;;;;;;;7.85;100.00;98026.63;4976964;28;20400;-83
2023/09/25 06:36:21;;;;;;;6.30;4.28;;;;;;;7.95;100.00;98025.09;4976997;28;20471;-84
2023/09/25 06:38:48;;;;;;;6.03;3.70;;;;;;;8.05;100.00;98024.56;4977206;28;20400;-83
2023/09/25 06:41:14;;;;;;;5.40;3.45;;;;;;;8.18;100.00;98034.19;4978499;28;20431;-81
2023/09/25 06:43:40;;;;;;;4.70;3.50;;;;;;;8.30;100.00;98033.22;4978960;28;20412;-77
2023/09/25 06:46:06;;;;;;;4.10;3.10;;;;;;;8.43;100.00;98034.94;4978537;28;20507;-83
2023/09/25 06:48:34;;;;;;;3.70;2.92;;;;;;;8.57;100.00;98035.59;4975842;28;20420;-84
2023/09/25 06:51:01;;;;;;;4.00;3.10;;;;;;;8.71;100.00;98031.78;4977291;28;20392;-83
2023/09/25 06:53:27;;;;;;;3.03;2.53;;;;;;;8.86;100.00;98027.69;4976221;28;20403;-83
2023/09/25 06:55:53;;;;;;;3.17;2.70;;;;;;;9.01;100.00;98031.78;4976389;28;20401;-85
2023/09/25 06:58:19;;;;;;;3.93;2.60;;;;;;;9.13;100.00;98022.03;4977344;28;20488;-84
2023/09/25 07:00:46;;;;;;;3.50;2.40;;;;;;;9.23;100.00;98020.47;4977382;28;20432;-84
2023/09/25 07:03:12;;;;;;;4.65;2.58;;;;;;;9.33;100.00;98022.53;4982436;28;20413;-83
2023/09/25 07:05:40;;;;;;;3.65;2.67;;;;;;;9.42;100.00;98020.38;4975796;28;20743;-83
2023/09/25 07:08:06;;;;;;;2.83;2.40;;;;;;;9.49;100.00;98013.13;4978445;28;20462;-83
2023/09/25 07:10:33;;;;;;;2.97;2.28;;;;;;;9.53;100.00;98015.09;4977376;28;20443;-83
2023/09/25 07:12:59;;;;;;;3.03;2.50;;;;;;;9.59;100.00;98008.91;4979513;28;20464;-83
2023/09/25 07:15:26;;;;;;;3.88;2.78;;;;;;;9.64;100.00;98009.00;4983954;28;20471;-80
2023/09/25 07:17:52;;;;;;;4.18;2.65;;;;;;;9.70;100.00;98018.66;4979953;28;20408;-80
2023/09/25 07:20:19;;;;;;;4.40;2.70;;;;;;;9.77;100.00;98015.13;4979093;28;20435;-80
2023/09/25 07:22:46;;;;;;;4.43;2.70;;;;;;;9.86;100.00;98021.66;4987194;28;20485;-79
2023/09/25 07:25:12;;;;;;;7.40;3.10;;;;;;;9.95;100.00;98026.38;4974551;28;20415;-80
2023/09/25 07:27:38;;;;;;;4.47;2.90;;;;;;;10.06;100.00;98025.56;4978200;28;20788;-80
2023/09/25 07:30:06;;;;;;;4.45;2.75;;;;;;;10.20;100.00;98026.16;4982519;28;20426;-81
2023/09/25 07:32:33;;;;;;;3.80;2.42;;;;;;;10.34;100.00;98027.50;4982480;28;20408;-83
2023/09/25 07:34:59;;;;;;;6.13;2.92;;;;;;;10.48;100.00;98031.50;4978538;28;20406;-82
2023/09/25 07:37:26;;;;;;;3.50;2.43;;;;;;;10.62;100.00;98026.72;4987352;28;20456;-82
2023/09/25 07:39:54;;;;;;;3.22;2.30;;;;;;;10.76;100.00;98020.13;4985989;28;20454;-83
2023/09/25 07:42:21;;;;;;;4.07;2.92;;;;;;;10.89;100.00;98021.69;4985136;28;20412;-82
2023/09/25 07:44:48;;;;;;;5.72;2.78;;;;;;;11.00;100.00;98020.81;4984017;28;20432;-83
2023/09/25 07:47:17;;;;;;;3.58;2.63;;;;;;;11.12;100.00;98031.38;4988959;28;20421;-82
2023/09/25 07:49:44;;;;;;;4.38;3.08;;;;;;;11.24;100.00;98032.91;4998162;28;20406;-82
2023/09/25 07:52:15;;;;;;;3.30;2.40;;;;;;;11.38;100.00;98033.41;4987134;28;20435;-80
2023/09/25 07:54:44;;;;;;;3.33;2.47;;;;;;;11.52;100.00;98042.66;4986800;28;20408;-81
2023/09/25 07:57:12;;;;;;;3.83;2.35;;;;;;;11.68;100.00;98030.44;4994705;28;20423;-79
2023/09/25 07:59:39;;;;;;;5.13;2.60;;;;;;;11.82;100.00;98037.03;4986942;28;20431;-79
2023/09/25 08:02:07;;;;;;;3.83;2.30;;;;;;;11.96;100.00;98037.50;4988105;28;20844;-80
2023/09/25 08:04:34;;;;;;;3.55;2.30;;;;;;;12.09;100.00;98034.53;5002615;28;20957;-80
2023/09/25 08:07:01;;;;;;;3.67;2.08;;;;;;;12.26;100.00;98034.47;5004528;28;20420;-80
2023/09/25 08:09:27;;;;;;;4.80;2.10;;;;;;;12.43;100.00;98035.22;4991955;28;20517;-80
2023/09/25 08:11:53;;;;;;;2.70;2.00;;;;;;;12.64;100.00;98042.38;4989243;28;20412;-80
2023/09/25 08:14:21;;;;;;;4.00;2.55;;;;;;;12.84;100.00;98036.50;4986307;28;20412;-81
2023/09/25 08:16:47;;;;;;;5.57;2.38;;;;;;;13.06;100.00;98034.63;4995692;28;20402;-79
2023/09/25 08:19:17;;;;;;;3.13;2.10;;;;;;;13.31;100.00;98039.38;4997703;28;20933;-80
2023/09/25 08:21:43;;;;;;;4.00;2.40;;;;;;;13.57;100.00;98037.75;4988465;28;20511;-80
2023/09/25 08:24:10;;;;;;;3.58;2.42;;;;;;;13.85;100.00;98041.94;4984740;28;20415;-82
2023/09/25 08:26:36;;;;;;;4.20;2.03;;;;;;;14.13;100.00;98036.31;4996613;28;20485;-81
2023/09/25 08:29:05;;;;;;;3.10;2.10;;;;;;;14.40;100.00;98035.38;4984998;28;20455;-79
2023/09/25 08:31:34;;;;;;;3.15;1.80;;;;;;;14.59;100.00;98045.31;4985798;28;20412;-81
2023/09/25 08:34:00;;;;;;;3.58;2.00;;;;;;;14.75;100.00;98037.38;4993068;28;20414;-80
2023/09/25 08:36:26;;;;;;;3.47;2.35;;;;;;;14.84;100.00;98043.81;4985312;28;20444;-80
2023/09/25 08:38:52;;;;;;;3.70;2.47;;;;;;;14.91;100.00;98047.03;4994455;28;20417;-81
2023/09/25 08:41:20;;;;;;;4.55;2.20;;;;;;;14.99;100.00;98042.00;4986665;28;20408;-81
2023/09/25 08:43:48;;;;;;;2.35;1.90;;;;;;;15.10;100.00;98042.84;4986587;28;20881;-82
2023/09/25 08:46:15;;;;;;;9.90;3.17;;;;;;;15.13;100.00;98047.63;4986087;28;20789;-80
2023/09/25 08:48:45;;;;;;;4.65;2.38;;;;;;;15.21;100.00;98043.63;4990267;28;20424;-80
2023/09/25 08:51:12;;;;;;;3.70;2.40;;;;;;;15.32;100.00;98047.94;4988453;28;20412;-82
2023/09/25 08:53:38;;;;;;;4.03;2.13;;;;;;;15.41;100.00;98044.44;4997191;28;20406;-80
2023/09/25 08:56:05;;;;;;;2.88;2.10;;;;;;;15.50;100.00;98044.72;4976348;28;20420;-79
2023/09/25 08:58:32;;;;;;;3.80;2.15;;;;;;;15.60;100.00;98049.31;4978482;28;21137;-79
2023/09/25 09:00:59;;;;;;;3.67;2.20;;;;;;;15.64;100.00;98053.03;4979179;28;20587;-79
2023/09/25 09:03:28;;;;;;;3.55;1.92;;;;;;;15.63;100.00;98048.78;4980314;28;20416;-79
2023/09/25 09:05:56;;;;;;;3.63;2.00;;;;;;;15.62;100.00;98056.00;4981415;28;20411;-79
2023/09/25 09:08:22;;;;;;;2.60;1.80;;;;;;;15.64;100.00;98047.69;4985827;28;20552;-77
2023/09/25 09:10:48;;;;;;;3.03;2.10;;;;;;;15.68;100.00;98046.91;4984692;28;20439;-79
2023/09/25 09:13:21;;;;;;;4.00;1.90;;;;;;;15.73;100.00;98041.56;4991778;28;20410;-79
2023/09/25 09:15:47;;;;;;;3.08;1.75;;;;;;;15.82;100.00;98047.97;4990377;28;20429;-79
2023/09/25 09:18:18;;;;;;;2.85;1.90;;;;;;;15.91;100.00;98040.22;4988930;28;20423;-78
2023/09/25 09:20:45;;;;;;;2.85;1.98;;;;;;;15.90;100.00;98040.47;4988554;28;20407;-79
2023/09/25 09:23:12;;;;;;;4.35;2.50;;;;;;;15.98;100.00;98042.63;4981547;28;20432;-79
2023/09/25 09:25:38;;;;;;;3.40;2.08;;;;;;;16.11;100.00;98044.72;4988015;28;20395;-79
2023/09/25 09:28:05;;;;;;;2.83;1.88;;;;;;;16.24;100.00;98047.63;4983004;28;20991;-79
2023/09/25 09:30:32;;;;;;;3.53;2.40;;;;;;;16.45;100.00;98039.56;4997067;28;20414;-83
2023/09/25 09:32:58;;;;;;;4.00;2.35;;;;;;;16.57;100.00;98043.53;4988639;28;20416;-82
2023/09/25 09:35:25;;;;;;;3.88;2.40;;;;;;;16.75;100.00;98044.03;4984822;28;20450;-82
2023/09/25 09:37:52;;;;;;;3.72;2.10;;;;;;;16.80;100.00;98034.09;4983997;28;20414;-82
2023/09/25 09:40:20;;;;;;;2.97;2.10;;;;;;;16.83;100.00;98035.44;4994500;28;20404;-81
2023/09/25 09:42:49;;;;;;;3.30;1.90;;;;;;;16.93;100.00;98036.16;4986223;28;20406;-80
2023/09/25 09:45:15;;;;;;;3.17;2.10;;;;;;;17.06;100.00;98039.31;4989122;28;20413;-80
2023/09/25 09:47:43;;;;;;;3.22;2.17;;;;;;;17.16;100.00;98031.22;4994969;28;20794;-80
2023/09/25 09:50:13;;;;;;;2.92;1.70;;;;;;;17.29;100.00;98033.28;4992231;28;20414;-80
2023/09/25 09:52:40;;;;;;;3.53;2.00;;;;;;;17.53;100.00;98033.34;4991705;28;20428;-79
2023/09/25 09:55:07;;;;;;;4.13;1.88;;;;;;;17.68;100.00;98027.91;4981601;28;20747;-79
2023/09/25 09:57:35;;;;;;;3.35;1.88;;;;;;;17.96;100.00;98032.50;4989289;28;20923;-80
2023/09/25 10:00:05;;;;;;;2.95;1.92;;;;;;;18.23;100.00;98026.59;4988302;28;20434;-79
2023/09/25 10:02:32;;;;;;;2.63;1.60;;;;;;;18.56;100.00;98016.88;4976408;28;20408;-81
2023/09/25 10:04:58;;;;;;;2.92;1.77;;;;;;;18.86;100.00;98021.03;4983021;28;20404;-81
2023/09/25 10:07:25;;;;;;;2.42;1.70;;;;;;;19.12;100.00;98021.47;4996671;28;20647;-80
2023/09/25 10:09:56;;;;;;;2.97;2.00;;;;;;;19.30;100.00;98023.38;4985582;28;20400;-80
2023/09/25 10:12:40;;;;;;;3.30;1.90;;;;;;;19.34;100.00;98017.09;4984108;28;20404;-81
2023/09/25 10:15:09;;;;;;;3.13;1.98;;;;;;;19.22;100.00;98022.13;4981531;28;20418;-80
2023/09/25 10:17:42;;;;;;;3.28;1.80;;;;;;;19.06;100.00;98020.75;4982467;28;20440;-80
2023/09/25 10:20:33;;;;;;;3.90;2.20;;;;;;;18.93;100.00;98016.91;4983066;28;20745;-81
2023/09/25 10:23:07;;;;;;;2.40;1.90;;;;;;;18.83;100.00;98009.00;4983744;28;20768;-81
2023/09/25 10:25:46;;;;;;;2.58;1.77;;;;;;;18.79;100.00;98013.34;4983169;28;20404;-80
2023/09/25 10:28:17;;;;;;;3.30;1.70;;;;;;;18.78;100.00;98016.31;4982792;28;20523;-81
2023/09/25 10:30:43;;;;;;;2.75;1.58;;;;;;;18.70;100.00;98014.28;4981986;28;20392;-80
2023/09/25 10:33:10;;;;;;;4.70;2.35;;;;;;;18.59;100.00;98018.97;4982910;28;20411;-80
2023/09/25 10:35:37;;;;;;;3.78;2.00;;;;;;;18.63;100.00;98008.47;4983084;28;20491;-81
2023/09/25 10:38:12;;;;;;;2.90;2.03;;;;;;;18.65;100.00;98007.06;4982772;28;20455;-80
2023/09/25 10:40:41;;;;;;;3.22;2.22;;;;;;;18.54;100.00;98011.75;4982320;28;20408;-81
2023/09/25 10:43:08;;;;;;;3.17;1.90;;;;;;;18.59;100.00;98002.88;4982174;28;20396;-80
2023/09/25 10:45:37;;;;;;;3.83;2.05;;;;;;;18.61;100.00;97999.91;4980953;28;20400;-82
2023/09/25 10:48:04;;;;;;;2.42;1.63;;;;;;;18.68;100.00;98000.34;4981211;28;20825;-80
2023/09/25 10:50:30;;;;;;;3.13;1.80;;;;;;;18.77;100.00;97999.44;4980797;28;20416;-79
2023/09/25 10:52:57;;;;;;;3.33;1.80;;;;;;;18.87;100.00;98003.84;4979732;28;20967;-79
2023/09/25 10:55:23;;;;;;;3.43;2.00;;;;;;;18.91;100.00;97997.63;4979870;28;20412;-79
2023/09/25 10:57:50;;;;;;;3.70;2.30;;;;;;;18.85;100.00;97992.63;4981392;28;20459;-80
2023/09/25 11:00:18;;;;;;;4.70;2.05;;;;;;;18.81;100.00;98000.44;4989911;28;20424;-78
2023/09/25 11:02:46;;;;;;;2.95;1.80;;;;;;;18.84;100.00;98001.75;4978554;28;20408;-79
2023/09/25 11:05:12;;;;;;;3.25;1.70;;;;;;;18.92;100.00;98001.09;4985898;28;20791;-78
2023/09/25 11:07:39;;;;;;;4.97;1.52;;;;;;;19.08;100.00;97999.81;4986332;28;20435;-78
2023/09/25 11:10:07;;;;;;;2.65;1.50;;;;;;;19.23;100.00;98009.50;4977526;28;20468;-79
2023/09/25 11:12:35;;;;;;;3.00;1.60;;;;;;;19.38;100.00;98006.59;4980441;28;20557;-78
2023/09/25 11:15:01;;;;;;;2.97;1.83;;;;;;;19.47;100.00;97994.09;4985900;28;20791;-79
2023/09/25 11:17:27;;;;;;;5.32;2.42;;;;;;;19.34;100.00;97992.16;4986059;28;20415;-78
2023/09/25 11:19:56;;;;;;;7.15;2.90;;;;;;;19.03;100.00;97994.50;4984443;28;20410;-78
2023/09/25 11:22:27;;;;;;;6.22;2.05;;;;;;;19.22;100.00;97994.50;4971381;28;20417;-78
2023/09/25 11:24:58;;;;;;;3.38;2.15;;;;;;;19.29;100.00;97992.22;4995448;28;20409;-79
2023/09/25 11:27:24;;;;;;;3.17;1.80;;;;;;;19.54;100.00;97999.13;4981296;28;20871;-77
2023/09/25 11:29:51;;;;;;;3.15;2.13;;;;;;;19.70;100.00;97995.06;4980219;28;20408;-79
2023/09/25 11:32:17;;;;;;;2.95;1.88;;;;;;;19.86;100.00;97995.59;4977003;28;20420;-78